Terminal Aerodrome Forecast
Issued by NWS

Home | Current Version | Previous Version | Text Only | Print | Product List | Glossary On
Versions: 1 2 3 4 5 6 7 8 9 10 11 12
000
FTUS43 KICT 010500
TAFCNU
TAF
KCNU 010527Z 0106/0206 18012KT P6SM VCSH BKN100
     FM011000 16011KT P6SM VCTS BKN060CB
     FM012000 17015G22KT P6SM BKN060
     FM020000 17015KT P6SM BKN060=

USA.gov is the U.S. government's official web portal to all federal, state and local government web resources and services.